Time;durP1;ratioP1;P1;durP2;ratioP2;P2;SDS_P1;SDS_P2;PMS_P1;PMS_P2;Temp;Humidity;BMP_temperature;BMP_pressure;BME280_temperature;BME280_humidity;BME280_pressure;Samples;Min_cycle;Max_cycle;Signal;HPM_P1;HPM_P2
2021/01/11 00:02:09;;;;;;;16.73;12.85;;;1.90;34.70;;;;;;5010480;28;20216;-65
2021/01/11 00:04:34;;;;;;;14.53;12.73;;;1.90;35.00;;;;;;5011852;28;20696;-65
2021/01/11 00:07:00;;;;;;;17.70;13.90;;;1.70;35.30;;;;;;5014133;28;20181;-65
2021/01/11 00:09:25;;;;;;;15.63;12.90;;;1.60;35.70;;;;;;5013879;28;20185;-65
2021/01/11 00:11:51;;;;;;;14.87;12.97;;;1.50;35.60;;;;;;5013880;28;20184;-65
2021/01/11 00:14:17;;;;;;;14.00;11.90;;;1.60;35.70;;;;;;5013793;28;20229;-64
2021/01/11 00:16:42;;;;;;;15.27;13.00;;;1.60;36.00;;;;;;5013659;28;20207;-64
2021/01/11 00:19:08;;;;;;;16.60;13.07;;;2.10;35.20;;;;;;5013658;28;20534;-65
2021/01/11 00:21:33;;;;;;;16.93;13.87;;;2.40;34.60;;;;;;5013469;28;20179;-65
2021/01/11 00:23:59;;;;;;;18.60;15.00;;;2.60;33.30;;;;;;5013432;28;20243;-64
2021/01/11 00:26:24;;;;;;;14.17;12.50;;;2.40;33.40;;;;;;5013446;28;20200;-64
2021/01/11 00:28:50;;;;;;;15.13;13.40;;;2.50;33.00;;;;;;5013692;28;20210;-64
2021/01/11 00:31:25;;;;;;;15.83;13.63;;;2.20;33.80;;;;;;5013493;28;20224;-64
2021/01/11 00:33:52;;;;;;;16.17;13.87;;;2.30;34.50;;;;;;5013406;28;20176;-64
2021/01/11 00:36:18;;;;;;;15.97;13.20;;;2.30;34.50;;;;;;5013107;28;20436;-64
2021/01/11 00:38:45;;;;;;;16.50;13.20;;;2.00;34.60;;;;;;5013239;28;20448;-64
2021/01/11 00:41:20;;;;;;;15.73;13.60;;;2.00;34.50;;;;;;5013397;28;20790;-64
2021/01/11 00:43:46;;;;;;;16.10;12.87;;;1.70;35.80;;;;;;5013335;28;20495;-64
2021/01/11 00:46:24;;;;;;;14.53;12.80;;;1.80;35.90;;;;;;5013581;28;20431;-64
2021/01/11 00:48:50;;;;;;;17.23;13.13;;;2.00;36.00;;;;;;5013018;28;20438;-64
2021/01/11 00:51:16;;;;;;;16.55;14.02;;;2.20;35.80;;;;;;5013259;28;20227;-64
2021/01/11 00:53:44;;;;;;;14.73;13.27;;;2.10;35.00;;;;;;5013153;28;20561;-64
2021/01/11 00:56:10;;;;;;;17.10;14.07;;;2.20;35.10;;;;;;5012974;28;20192;-64
2021/01/11 00:58:36;;;;;;;16.80;14.13;;;2.40;34.50;;;;;;5013093;28;20844;-64
2021/01/11 01:01:02;;;;;;;15.63;13.93;;;2.40;35.00;;;;;;5013046;28;20507;-64
2021/01/11 01:03:27;;;;;;;15.00;12.33;;;2.60;34.80;;;;;;5013040;28;20177;-64
2021/01/11 01:05:52;;;;;;;19.20;14.00;;;2.50;34.20;;;;;;5013081;28;20686;-64
2021/01/11 01:08:18;;;;;;;19.97;13.60;;;2.60;34.00;;;;;;5012887;28;20252;-64
2021/01/11 01:10:43;;;;;;;16.90;14.23;;;2.80;33.80;;;;;;5013175;28;20243;-64
2021/01/11 01:13:09;;;;;;;15.87;13.57;;;2.70;34.80;;;;;;5012885;28;20591;-64
2021/01/11 01:15:34;;;;;;;17.87;14.40;;;2.70;34.20;;;;;;5012151;28;20205;-64
2021/01/11 01:18:00;;;;;;;18.13;13.50;;;2.10;34.00;;;;;;5012318;28;20292;-64
2021/01/11 01:20:25;;;;;;;14.57;13.07;;;1.80;34.90;;;;;;5012618;28;20536;-64
2021/01/11 01:22:51;;;;;;;15.83;14.13;;;1.70;35.80;;;;;;5012568;28;20188;-63
2021/01/11 01:25:17;;;;;;;15.57;13.80;;;1.80;35.10;;;;;;5012285;28;20669;-64
2021/01/11 01:27:42;;;;;;;14.57;12.97;;;2.00;35.20;;;;;;5012395;28;20182;-64
2021/01/11 01:30:12;;;;;;;17.60;13.50;;;2.10;34.60;;;;;;5012457;28;20210;-64
2021/01/11 01:32:39;;;;;;;14.77;12.80;;;2.10;34.30;;;;;;5012178;28;20652;-64
2021/01/11 01:35:05;;;;;;;14.10;12.60;;;2.10;34.40;;;;;;5012186;28;20453;-64
2021/01/11 01:37:30;;;;;;;15.30;13.33;;;2.10;34.10;;;;;;5011971;28;20485;-64
2021/01/11 01:39:56;;;;;;;15.30;12.03;;;2.10;34.60;;;;;;5012146;28;20789;-64
2021/01/11 01:42:21;;;;;;;18.97;14.00;;;2.20;33.30;;;;;;5012182;28;20177;-64
2021/01/11 01:44:47;;;;;;;16.00;13.43;;;2.20;33.50;;;;;;5012079;28;20204;-64
2021/01/11 01:47:13;;;;;;;16.83;13.93;;;2.30;33.80;;;;;;5011877;28;20185;-64
2021/01/11 01:49:39;;;;;;;14.00;12.57;;;2.40;33.20;;;;;;5012177;28;20178;-64
2021/01/11 01:52:07;;;;;;;14.60;12.97;;;2.30;33.40;;;;;;5012035;28;20420;-64
2021/01/11 01:54:34;;;;;;;26.03;14.37;;;2.30;33.60;;;;;;5011820;28;20444;-64
2021/01/11 01:56:59;;;;;;;14.33;12.83;;;2.20;33.80;;;;;;5011799;28;20459;-64
2021/01/11 01:59:27;;;;;;;14.70;13.20;;;2.20;33.80;;;;;;5011856;28;21041;-64
2021/01/11 02:01:54;;;;;;;17.50;13.97;;;2.10;33.90;;;;;;5011782;28;20184;-64
2021/01/11 02:04:19;;;;;;;16.40;14.70;;;2.00;33.80;;;;;;5011782;28;20896;-64
2021/01/11 02:06:50;;;;;;;15.47;13.97;;;1.80;34.80;;;;;;5011937;28;20424;-64
2021/01/11 02:09:25;;;;;;;17.97;14.70;;;1.80;34.80;;;;;;5011569;28;20187;-64
2021/01/11 02:11:56;;;;;;;18.80;14.93;;;1.80;35.90;;;;;;5011757;28;20415;-64
2021/01/11 02:14:49;;;;;;;15.03;13.17;;;2.00;35.50;;;;;;5011494;28;20179;-64
2021/01/11 02:17:23;;;;;;;17.25;14.80;;;1.90;35.30;;;;;;5011363;28;21186;-64
2021/01/11 02:20:18;;;;;;;16.30;14.47;;;1.50;35.00;;;;;;5011592;28;20183;-64
2021/01/11 02:23:19;;;;;;;14.55;12.65;;;1.20;35.40;;;;;;5011517;28;20751;-64
2021/01/11 02:26:08;;;;;;;15.85;13.18;;;1.30;35.40;;;;;;5011474;28;20263;-64
2021/01/11 02:29:04;;;;;;;15.10;13.55;;;1.50;35.60;;;;;;5010682;28;20222;-64
2021/01/11 02:31:31;;;;;;;15.27;13.68;;;1.00;36.10;;;;;;5011421;28;20173;-64
2021/01/11 02:33:59;;;;;;;15.15;12.23;;;0.80;37.00;;;;;;5011324;28;20177;-64
2021/01/11 02:36:26;;;;;;;16.10;13.52;;;0.90;37.20;;;;;;5011174;28;20204;-64
2021/01/11 02:38:53;;;;;;;17.23;13.18;;;1.00;36.80;;;;;;5011136;28;20172;-64
2021/01/11 02:41:19;;;;;;;14.98;12.85;;;1.00;36.40;;;;;;5011223;28;20199;-64
2021/01/11 02:43:44;;;;;;;19.43;15.43;;;1.00;36.50;;;;;;5011360;28;20183;-64
2021/01/11 02:46:10;;;;;;;17.20;13.17;;;0.90;36.40;;;;;;5011436;28;20247;-64
2021/01/11 02:48:44;;;;;;;19.83;14.57;;;0.80;37.50;;;;;;5011249;28;20647;-64
2021/01/11 02:51:19;;;;;;;16.13;14.30;;;1.00;36.40;;;;;;5011192;28;20513;-64
2021/01/11 02:54:04;;;;;;;15.25;13.38;;;0.80;36.60;;;;;;5011084;28;20543;-64
2021/01/11 02:56:36;;;;;;;21.00;13.70;;;0.70;37.00;;;;;;5011158;28;20322;-64
2021/01/11 02:59:17;;;;;;;15.80;13.55;;;0.80;36.70;;;;;;5011026;28;20228;-63
2021/01/11 03:01:48;;;;;;;15.73;13.38;;;0.90;36.50;;;;;;5011232;28;20233;-64
2021/01/11 03:04:20;;;;;;;15.88;12.52;;;1.10;36.10;;;;;;5010961;28;20208;-64
2021/01/11 03:07:00;;;;;;;14.52;11.57;;;1.10;35.90;;;;;;5011083;28;20157;-64
2021/01/11 03:09:27;;;;;;;19.42;13.40;;;1.10;36.00;;;;;;5010929;28;20229;-63
2021/01/11 03:11:53;;;;;;;16.42;14.23;;;1.00;36.10;;;;;;5011023;28;20185;-64
2021/01/11 03:14:18;;;;;;;16.63;12.60;;;1.30;35.80;;;;;;5010860;28;20192;-64
2021/01/11 03:16:44;;;;;;;14.17;12.67;;;1.60;35.70;;;;;;5010793;28;20549;-64
2021/01/11 03:19:09;;;;;;;15.70;13.10;;;1.50;34.90;;;;;;5010632;28;20245;-64
2021/01/11 03:21:36;;;;;;;15.23;13.57;;;1.40;35.50;;;;;;5010845;28;20176;-64
2021/01/11 03:24:02;;;;;;;16.20;12.68;;;1.10;35.60;;;;;;5010766;28;20185;-64
2021/01/11 03:26:27;;;;;;;16.08;12.38;;;0.80;37.10;;;;;;5010630;28;20199;-64
2021/01/11 03:28:53;;;;;;;16.80;14.03;;;0.70;37.70;;;;;;5010724;28;20218;-64
2021/01/11 03:31:22;;;;;;;19.03;14.10;;;1.30;36.40;;;;;;5010657;28;20173;-64
2021/01/11 03:33:48;;;;;;;15.50;12.55;;;1.30;35.40;;;;;;5010838;28;20456;-64
2021/01/11 03:36:15;;;;;;;16.17;13.13;;;1.00;35.90;;;;;;5010535;28;20558;-64
2021/01/11 03:38:41;;;;;;;14.73;13.07;;;0.90;36.10;;;;;;5011725;28;20459;-63
2021/01/11 03:41:10;;;;;;;15.18;13.63;;;0.90;36.00;;;;;;5014452;28;20175;-64
2021/01/11 03:43:42;;;;;;;15.15;12.82;;;1.10;35.60;;;;;;5014350;28;20219;-64
2021/01/11 03:46:09;;;;;;;15.73;12.75;;;1.30;34.90;;;;;;5014380;28;20256;-64
2021/01/11 03:48:35;;;;;;;17.23;12.77;;;1.00;35.20;;;;;;5014241;28;20314;-64
2021/01/11 03:51:00;;;;;;;15.13;11.90;;;0.80;36.50;;;;;;5014241;28;20646;-64
2021/01/11 03:53:26;;;;;;;14.53;12.93;;;1.00;36.50;;;;;;5014486;28;20192;-64
2021/01/11 03:55:52;;;;;;;18.73;15.63;;;1.00;36.30;;;;;;5014231;28;20960;-64
2021/01/11 03:58:18;;;;;;;17.50;14.40;;;0.80;37.10;;;;;;5013966;28;20212;-64
2021/01/11 04:00:43;;;;;;;16.47;14.10;;;0.70;37.70;;;;;;5014170;28;20412;-64
2021/01/11 04:03:09;;;;;;;16.03;13.33;;;0.80;38.50;;;;;;5014078;28;20173;-64
2021/01/11 04:05:35;;;;;;;17.20;13.43;;;0.90;37.10;;;;;;5013912;28;20199;-64
2021/01/11 04:08:01;;;;;;;17.37;13.30;;;0.60;37.30;;;;;;5013881;28;20548;-64
2021/01/11 04:10:27;;;;;;;19.05;13.05;;;0.60;37.60;;;;;;5013947;28;20343;-64
2021/01/11 04:12:53;;;;;;;15.27;13.77;;;0.60;36.40;;;;;;5013779;28;20234;-64
2021/01/11 04:15:18;;;;;;;17.17;14.13;;;0.40;37.80;;;;;;5013852;28;20519;-64
2021/01/11 04:17:44;;;;;;;13.53;11.90;;;0.40;37.80;;;;;;5013643;28;20213;-64
2021/01/11 04:20:09;;;;;;;16.00;13.40;;;0.10;38.60;;;;;;5013753;28;20186;-64
2021/01/11 04:22:35;;;;;;;19.93;12.03;;;0.50;38.20;;;;;;5013841;28;20764;-64
2021/01/11 04:25:01;;;;;;;13.43;12.00;;;1.00;37.80;;;;;;5013575;28;20209;-64
2021/01/11 04:27:26;;;;;;;17.10;14.40;;;1.20;36.40;;;;;;5013659;28;20173;-64
2021/01/11 04:29:52;;;;;;;16.30;13.20;;;1.40;35.50;;;;;;5013600;28;20616;-64
2021/01/11 04:32:17;;;;;;;18.70;13.20;;;1.30;35.60;;;;;;5013653;28;20187;-64
2021/01/11 04:34:43;;;;;;;16.50;12.60;;;1.20;35.40;;;;;;5013452;28;20205;-64
2021/01/11 04:37:09;;;;;;;17.10;12.40;;;1.20;35.40;;;;;;5013205;28;20200;-64
2021/01/11 04:39:35;;;;;;;15.67;12.47;;;1.20;35.40;;;;;;5013312;28;20973;-64
2021/01/11 04:42:10;;;;;;;14.53;12.03;;;1.10;35.30;;;;;;5013313;28;20500;-64
2021/01/11 04:44:37;;;;;;;16.00;13.33;;;1.10;35.30;;;;;;5013370;28;20924;-63
2021/01/11 04:47:03;;;;;;;14.32;11.80;;;1.30;34.80;;;;;;5012913;28;20777;-64
2021/01/11 04:49:30;;;;;;;15.48;13.65;;;1.30;34.80;;;;;;5012715;28;20178;-64
2021/01/11 04:52:00;;;;;;;15.45;13.35;;;1.40;34.90;;;;;;5012599;28;20622;-64
2021/01/11 04:54:29;;;;;;;15.35;11.95;;;1.60;34.20;;;;;;5013158;28;20261;-64
2021/01/11 04:57:00;;;;;;;13.18;11.77;;;1.50;34.00;;;;;;5012941;28;20204;-64
2021/01/11 04:59:27;;;;;;;18.17;13.57;;;1.40;33.30;;;;;;5011866;28;20165;-64
2021/01/11 05:01:54;;;;;;;16.00;12.60;;;1.40;33.50;;;;;;5012925;28;20177;-65
2021/01/11 05:04:20;;;;;;;15.48;13.85;;;1.30;33.30;;;;;;5012745;28;20801;-65
2021/01/11 05:06:47;;;;;;;13.83;12.03;;;0.90;34.60;;;;;;5011613;28;20212;-65
2021/01/11 05:09:16;;;;;;;17.02;13.32;;;0.80;35.00;;;;;;5011953;28;20165;-65
2021/01/11 05:11:41;;;;;;;18.95;13.48;;;0.60;36.00;;;;;;5012875;28;20180;-65
2021/01/11 05:14:08;;;;;;;15.53;13.80;;;0.30;37.50;;;;;;5012668;28;20190;-65
2021/01/11 05:16:36;;;;;;;18.25;14.48;;;0.40;37.70;;;;;;5012531;28;20705;-65
2021/01/11 05:19:25;;;;;;;16.48;14.43;;;0.80;36.50;;;;;;5012477;28;20174;-65
2021/01/11 05:21:52;;;;;;;15.35;13.57;;;0.70;36.60;;;;;;5012671;28;20173;-66
2021/01/11 05:24:34;;;;;;;16.13;13.25;;;0.70;36.30;;;;;;5012399;28;20533;-66
2021/01/11 05:27:05;;;;;;;15.35;13.05;;;1.10;35.30;;;;;;5012558;28;20539;-65
2021/01/11 05:29:31;;;;;;;15.63;12.73;;;1.10;35.30;;;;;;5012562;28;20260;-66
2021/01/11 05:31:59;;;;;;;14.93;13.32;;;0.70;35.60;;;;;;5012428;28;20189;-65
2021/01/11 05:34:43;;;;;;;15.50;12.52;;;0.60;36.30;;;;;;5012646;28;20252;-65
2021/01/11 05:37:09;;;;;;;17.50;13.88;;;0.40;38.30;;;;;;5012364;28;20233;-65
2021/01/11 05:39:34;;;;;;;15.93;14.20;;;0.10;37.40;;;;;;5012396;28;20263;-65
2021/01/11 05:42:00;;;;;;;17.03;13.87;;;0.20;37.90;;;;;;5012284;28;20181;-65
2021/01/11 05:44:25;;;;;;;15.33;13.00;;;0.30;37.70;;;;;;5012201;28;20690;-64
2021/01/11 05:46:51;;;;;;;14.60;13.20;;;0.30;37.70;;;;;;5012220;28;20230;-65
2021/01/11 05:49:17;;;;;;;16.97;14.20;;;0.20;37.60;;;;;;5011935;28;20173;-65
2021/01/11 05:51:42;;;;;;;15.50;13.70;;;0.30;37.80;;;;;;5012007;28;20200;-64
2021/01/11 05:54:24;;;;;;;16.70;15.00;;;0.20;38.20;;;;;;5011891;28;20188;-64
2021/01/11 05:56:55;;;;;;;16.60;14.93;;;0.30;37.60;;;;;;5011835;28;20283;-64
2021/01/11 05:59:20;;;;;;;14.80;13.35;;;-0.10;38.70;;;;;;5011694;28;20625;-65
2021/01/11 06:01:46;;;;;;;17.73;14.90;;;-0.20;39.50;;;;;;5011922;28;20222;-64
2021/01/11 06:04:12;;;;;;;15.53;12.40;;;-0.30;39.70;;;;;;5011595;28;20459;-64
2021/01/11 06:06:39;;;;;;;18.57;14.63;;;-0.30;39.10;;;;;;5011805;28;20205;-64
2021/01/11 06:09:06;;;;;;;18.00;15.18;;;0.10;38.60;;;;;;5011476;28;20222;-63
2021/01/11 06:11:35;;;;;;;23.65;16.88;;;0.30;37.40;;;;;;5011458;28;20256;-63
2021/01/11 06:14:02;;;;;;;17.77;13.50;;;0.00;37.60;;;;;;5011606;28;20186;-64
2021/01/11 06:16:29;;;;;;;18.35;15.38;;;-0.20;38.50;;;;;;5011551;28;20610;-64
2021/01/11 06:18:55;;;;;;;20.08;15.13;;;-0.30;38.60;;;;;;5011236;28;20212;-64
2021/01/11 06:21:21;;;;;;;19.17;14.27;;;0.00;38.30;;;;;;5011448;28;20166;-63
2021/01/11 06:23:47;;;;;;;18.80;14.30;;;0.20;37.30;;;;;;5011414;28;20193;-63
2021/01/11 06:26:33;;;;;;;15.23;13.33;;;0.40;36.80;;;;;;5011350;28;20558;-64
2021/01/11 06:28:59;;;;;;;19.92;13.07;;;0.50;36.60;;;;;;5011091;28;20255;-63
2021/01/11 06:31:29;;;;;;;19.67;13.80;;;0.30;35.50;;;;;;5011655;28;20180;-63
2021/01/11 06:33:56;;;;;;;21.17;13.55;;;0.20;36.20;;;;;;5011671;28;20407;-63
2021/01/11 06:36:24;;;;;;;15.10;11.88;;;0.50;35.50;;;;;;5011437;28;20181;-63
2021/01/11 06:38:51;;;;;;;43.58;28.20;;;0.40;35.00;;;;;;5011254;28;20173;-64
2021/01/11 06:41:19;;;;;;;19.30;12.80;;;0.60;34.90;;;;;;5011425;28;20170;-63
2021/01/11 06:43:50;;;;;;;25.08;14.23;;;0.70;34.50;;;;;;5007248;28;20176;-63
2021/01/11 06:46:28;;;;;;;15.07;12.57;;;0.80;34.70;;;;;;5010584;28;20197;-63
2021/01/11 06:49:01;;;;;;;16.52;13.85;;;0.90;34.20;;;;;;5010578;28;20171;-63
2021/01/11 06:51:40;;;;;;;17.65;13.70;;;1.10;34.10;;;;;;5010772;28;20549;-63
2021/01/11 06:54:11;;;;;;;16.90;12.90;;;1.30;34.30;;;;;;5010840;28;20658;-65
2021/01/11 06:56:38;;;;;;;15.98;13.50;;;3.10;51.50;;;;;;5010294;28;20269;-64
2021/01/11 06:59:08;;;;;;;13.63;11.68;;;3.50;50.80;;;;;;5010354;28;20177;-64
2021/01/11 07:01:38;;;;;;;16.53;13.37;;;2.90;40.20;;;;;;5010110;28;20216;-64
2021/01/11 07:04:04;;;;;;;16.10;13.47;;;2.60;36.10;;;;;;5009229;28;20499;-64
2021/01/11 07:06:41;;;;;;;15.17;13.63;;;1.90;31.90;;;;;;5010567;28;20430;-64
2021/01/11 07:09:10;;;;;;;17.48;14.90;;;1.80;32.50;;;;;;5010267;28;20420;-64
2021/01/11 07:11:37;;;;;;;22.48;14.18;;;1.20;33.10;;;;;;5010324;28;20180;-64
2021/01/11 07:14:03;;;;;;;19.27;14.70;;;0.90;35.10;;;;;;5012163;28;20199;-64
2021/01/11 07:16:56;;;;;;;15.95;13.05;;;1.00;35.20;;;;;;5014379;28;20229;-64
2021/01/11 07:19:36;;;;;;;18.75;14.75;;;0.90;34.50;;;;;;5013036;28;20291;-64
2021/01/11 07:22:04;;;;;;;15.57;11.75;;;0.80;35.10;;;;;;5014215;28;20179;-64
2021/01/11 07:24:29;;;;;;;18.92;13.82;;;0.60;34.90;;;;;;5014111;28;20563;-64
2021/01/11 07:26:55;;;;;;;15.33;12.97;;;0.30;35.90;;;;;;5014283;28;20188;-64
2021/01/11 07:29:21;;;;;;;17.92;13.95;;;0.20;36.40;;;;;;5013919;28;20189;-64
2021/01/11 07:31:47;;;;;;;14.77;12.60;;;0.20;36.40;;;;;;5014218;28;20175;-64
2021/01/11 07:34:17;;;;;;;16.75;12.57;;;-0.10;36.70;;;;;;5013240;28;20783;-64
2021/01/11 07:36:48;;;;;;;17.73;13.43;;;-0.20;36.70;;;;;;5013909;28;20351;-64
2021/01/11 07:39:34;;;;;;;15.88;12.98;;;0.00;36.50;;;;;;5013950;28;20251;-63
2021/01/11 07:42:01;;;;;;;15.50;13.00;;;-0.20;37.30;;;;;;5013921;28;20192;-63
2021/01/11 07:44:31;;;;;;;18.40;14.70;;;-0.10;37.70;;;;;;5012359;28;20208;-62
2021/01/11 07:47:00;;;;;;;17.25;12.50;;;-0.30;37.40;;;;;;5026478;28;20585;-64
2021/01/11 07:49:28;;;;;;;15.13;12.05;;;-0.40;37.20;;;;;;5019728;28;20196;-64
2021/01/11 07:52:02;;;;;;;16.55;14.00;;;-0.50;37.50;;;;;;5014177;28;20540;-63
2021/01/11 07:54:28;;;;;;;15.27;11.63;;;-0.70;38.90;;;;;;5014197;28;20202;-64
2021/01/11 07:56:53;;;;;;;21.50;13.47;;;-0.40;37.60;;;;;;5014293;28;20211;-63
2021/01/11 07:59:19;;;;;;;15.73;11.80;;;-0.50;39.60;;;;;;5013994;28;20432;-63
2021/01/11 08:01:47;;;;;;;19.87;14.07;;;0.00;36.20;;;;;;5014005;28;20642;-63
2021/01/11 08:04:13;;;;;;;15.20;12.65;;;-0.30;36.80;;;;;;5013736;28;20175;-63
2021/01/11 08:06:52;;;;;;;17.30;13.32;;;0.00;36.60;;;;;;5014109;28;20606;-63
2021/01/11 08:09:22;;;;;;;16.67;12.57;;;-0.10;36.60;;;;;;5013802;28;20714;-62
2021/01/11 08:11:48;;;;;;;18.17;12.85;;;0.20;36.20;;;;;;5013742;28;20169;-63
2021/01/11 08:14:14;;;;;;;15.47;12.63;;;-0.20;36.20;;;;;;5013726;28;20763;-63
2021/01/11 08:16:41;;;;;;;14.10;12.40;;;-0.50;37.30;;;;;;5013525;28;20830;-63
2021/01/11 08:19:11;;;;;;;15.55;13.07;;;-0.40;37.40;;;;;;5013593;28;20581;-63
2021/01/11 08:21:39;;;;;;;19.20;13.38;;;-0.50;37.90;;;;;;5013752;28;20172;-63
2021/01/11 08:24:09;;;;;;;24.65;13.70;;;-0.10;37.10;;;;;;5013411;28;20198;-62
2021/01/11 08:26:49;;;;;;;17.85;14.60;;;0.00;36.70;;;;;;5012652;28;20183;-63
2021/01/11 08:29:16;;;;;;;13.40;11.90;;;-0.40;37.10;;;;;;5013309;28;20177;-62
2021/01/11 08:31:44;;;;;;;16.05;14.20;;;-0.40;37.30;;;;;;5013407;28;20196;-63
2021/01/11 08:34:10;;;;;;;18.00;14.68;;;-0.10;37.70;;;;;;5013377;28;20631;-64
2021/01/11 08:36:36;;;;;;;17.20;12.43;;;-0.20;36.50;;;;;;5013233;28;20232;-64
2021/01/11 08:39:12;;;;;;;19.57;13.90;;;-0.30;36.20;;;;;;5013204;28;20478;-64
2021/01/11 08:41:43;;;;;;;17.30;14.65;;;-0.30;38.80;;;;;;5013308;28;20197;-63
2021/01/11 08:44:28;;;;;;;17.15;11.40;;;-0.10;36.20;;;;;;5012957;28;20179;-63
2021/01/11 08:47:04;;;;;;;15.13;12.98;;;0.00;35.50;;;;;;5013382;28;20174;-63
2021/01/11 08:49:30;;;;;;;18.52;14.05;;;-0.40;35.70;;;;;;5013281;28;20173;-64
2021/01/11 08:52:12;;;;;;;14.45;12.60;;;-0.30;36.80;;;;;;5013234;28;20750;-63
2021/01/11 08:54:39;;;;;;;16.30;13.50;;;-0.50;37.30;;;;;;5013183;28;20202;-64
2021/01/11 08:57:13;;;;;;;19.05;13.15;;;-0.20;36.80;;;;;;5012822;28;20225;-63
2021/01/11 08:59:47;;;;;;;24.75;13.23;;;-0.50;37.40;;;;;;5013088;28;20607;-63
2021/01/11 09:02:27;;;;;;;14.30;11.93;;;-0.40;36.60;;;;;;5012984;28;20177;-64
2021/01/11 09:04:53;;;;;;;14.88;12.80;;;-0.50;37.10;;;;;;5012851;28;20213;-63
2021/01/11 09:07:30;;;;;;;22.13;15.18;;;-0.40;37.00;;;;;;5012907;28;20182;-65
2021/01/11 09:09:56;;;;;;;20.85;14.43;;;-0.20;36.20;;;;;;5012743;28;20173;-64
2021/01/11 09:12:30;;;;;;;14.55;13.00;;;-0.20;36.30;;;;;;5012675;28;20624;-64
2021/01/11 09:14:56;;;;;;;16.20;11.95;;;-0.40;35.90;;;;;;5012406;28;20280;-64
2021/01/11 09:17:31;;;;;;;16.67;13.05;;;-0.40;36.40;;;;;;5012174;28;20238;-63
2021/01/11 09:20:03;;;;;;;14.77;13.20;;;-0.60;36.80;;;;;;5012651;28;20169;-64
2021/01/11 09:22:31;;;;;;;16.48;13.15;;;-0.60;36.90;;;;;;5012531;28;20173;-62
2021/01/11 09:24:57;;;;;;;13.95;12.07;;;-0.30;36.20;;;;;;5012201;28;20213;-63
2021/01/11 09:27:24;;;;;;;15.60;11.90;;;-0.20;36.00;;;;;;5012027;28;20598;-62
2021/01/11 09:29:49;;;;;;;15.95;11.40;;;0.00;36.30;;;;;;5012162;28;20179;-64
2021/01/11 09:32:15;;;;;;;17.80;12.40;;;0.30;35.00;;;;;;5012385;28;20220;-64
2021/01/11 09:34:40;;;;;;;14.03;12.53;;;0.20;35.20;;;;;;5012264;28;20859;-64
2021/01/11 09:37:10;;;;;;;20.83;14.90;;;0.40;34.30;;;;;;5026453;28;20198;-64
2021/01/11 09:39:36;;;;;;;18.67;13.35;;;0.60;34.40;;;;;;5011972;28;20173;-64
2021/01/11 09:42:02;;;;;;;19.53;13.20;;;0.70;34.60;;;;;;5011965;28;20184;-63
2021/01/11 09:44:29;;;;;;;16.70;12.55;;;0.70;33.50;;;;;;5011960;28;20251;-63
2021/01/11 09:46:57;;;;;;;15.25;12.50;;;0.80;34.00;;;;;;5012319;28;20178;-64
2021/01/11 09:49:23;;;;;;;17.48;13.27;;;0.70;33.40;;;;;;5011833;28;20222;-62
2021/01/11 09:51:50;;;;;;;16.67;12.90;;;0.60;33.10;;;;;;5012083;28;20222;-64
2021/01/11 09:54:15;;;;;;;16.55;12.90;;;0.50;33.60;;;;;;5011336;28;20642;-63
2021/01/11 09:56:41;;;;;;;16.03;13.50;;;0.80;33.30;;;;;;5011331;28;20301;-64
2021/01/11 09:59:09;;;;;;;16.47;12.30;;;1.30;34.20;;;;;;5008856;28;20174;-64
2021/01/11 10:01:46;;;;;;;20.73;14.95;;;1.40;32.20;;;;;;5011384;28;20170;-64
2021/01/11 10:04:13;;;;;;;15.07;12.85;;;1.20;32.00;;;;;;5009491;28;20169;-64
2021/01/11 10:06:41;;;;;;;17.05;14.90;;;1.20;32.50;;;;;;5011552;28;20172;-64
2021/01/11 10:09:09;;;;;;;15.63;12.68;;;1.20;33.10;;;;;;5007879;28;20262;-63
2021/01/11 10:11:34;;;;;;;15.07;13.27;;;1.40;33.40;;;;;;5010408;28;20180;-64
2021/01/11 10:14:00;;;;;;;14.63;12.47;;;0.80;32.80;;;;;;5010367;28;20170;-63
2021/01/11 10:16:25;;;;;;;16.87;13.03;;;0.80;33.40;;;;;;5010367;28;20235;-64
2021/01/11 10:18:51;;;;;;;15.63;11.83;;;0.80;33.30;;;;;;5010242;28;20169;-64
2021/01/11 10:21:16;;;;;;;14.73;11.27;;;1.10;33.00;;;;;;5010105;28;20203;-64
2021/01/11 10:23:42;;;;;;;17.27;12.30;;;1.10;33.50;;;;;;5007389;28;20713;-64
2021/01/11 10:26:14;;;;;;;16.40;12.63;;;1.00;32.80;;;;;;5009897;28;20196;-64
2021/01/11 10:28:40;;;;;;;14.65;12.10;;;1.20;32.30;;;;;;5009867;28;20700;-64
2021/01/11 10:31:05;;;;;;;16.60;13.37;;;1.10;32.30;;;;;;5010826;28;20181;-64
2021/01/11 10:33:31;;;;;;;15.97;12.10;;;1.00;32.60;;;;;;5010074;28;20209;-66
2021/01/11 10:35:57;;;;;;;16.77;12.67;;;1.10;32.80;;;;;;5010069;28;20203;-66
2021/01/11 10:38:22;;;;;;;16.98;12.88;;;1.40;32.00;;;;;;5009989;28;20201;-66
2021/01/11 10:40:47;;;;;;;18.17;12.30;;;1.50;31.70;;;;;;5010223;28;20201;-66
2021/01/11 10:43:13;;;;;;;13.70;11.30;;;1.70;32.00;;;;;;5010218;28;20220;-66
2021/01/11 10:45:39;;;;;;;14.00;12.07;;;2.00;31.10;;;;;;5009485;28;20278;-65
2021/01/11 10:48:05;;;;;;;12.33;11.07;;;1.50;30.80;;;;;;5008871;28;20209;-65
2021/01/11 10:50:31;;;;;;;14.50;11.57;;;1.50;31.00;;;;;;5009249;28;20176;-63
2021/01/11 10:52:56;;;;;;;14.10;11.50;;;1.10;32.00;;;;;;5009441;28;20181;-63
2021/01/11 10:55:22;;;;;;;16.10;10.97;;;1.10;31.70;;;;;;5009625;28;20565;-64
2021/01/11 10:57:48;;;;;;;14.57;9.63;;;1.30;31.40;;;;;;5009379;28;20314;-63
2021/01/11 11:00:18;;;;;;;14.40;11.45;;;1.20;31.60;;;;;;5007188;28;20182;-64
2021/01/11 11:02:44;;;;;;;14.38;12.73;;;1.20;31.90;;;;;;5009877;28;20170;-64
2021/01/11 11:05:11;;;;;;;15.68;11.48;;;1.60;31.70;;;;;;5009482;28;20198;-64
2021/01/11 11:07:38;;;;;;;15.27;11.82;;;1.60;31.40;;;;;;5008984;28;20727;-64
2021/01/11 11:10:05;;;;;;;16.40;13.43;;;1.70;30.70;;;;;;5009652;28;20185;-64
2021/01/11 11:12:31;;;;;;;13.15;11.30;;;1.60;31.20;;;;;;5009372;28;20180;-64
2021/01/11 11:14:58;;;;;;;11.30;10.07;;;1.50;30.80;;;;;;5009619;28;20197;-64
2021/01/11 11:17:24;;;;;;;14.13;11.20;;;1.60;31.30;;;;;;5009408;28;20200;-64
2021/01/11 11:19:50;;;;;;;11.63;10.30;;;1.60;30.80;;;;;;5009389;28;20180;-63
2021/01/11 11:22:15;;;;;;;15.67;13.00;;;1.50;29.90;;;;;;5009481;28;20421;-64
2021/01/11 11:24:41;;;;;;;12.73;10.10;;;1.50;31.10;;;;;;5009432;28;20220;-63
2021/01/11 11:27:06;;;;;;;12.23;10.70;;;1.70;30.90;;;;;;5009328;28;20193;-64
2021/01/11 11:29:32;;;;;;;14.17;12.77;;;2.00;31.80;;;;;;5009115;28;20257;-63
2021/01/11 11:31:57;;;;;;;14.50;11.03;;;1.90;30.50;;;;;;5009287;28;20178;-64
2021/01/11 11:34:23;;;;;;;15.93;11.80;;;1.70;29.70;;;;;;5009099;28;20564;-65
2021/01/11 11:36:48;;;;;;;12.23;10.80;;;2.00;31.00;;;;;;5009121;28;20207;-65
2021/01/11 11:39:14;;;;;;;14.10;11.73;;;2.10;29.70;;;;;;5009207;28;20239;-65
2021/01/11 11:41:41;;;;;;;11.33;9.53;;;2.20;30.20;;;;;;5009317;28;20222;-64
2021/01/11 11:44:06;;;;;;;13.50;11.87;;;2.60;28.90;;;;;;5009403;28;20261;-64
2021/01/11 11:46:32;;;;;;;17.60;12.03;;;2.50;28.70;;;;;;5009241;28;20963;-64
2021/01/11 11:48:57;;;;;;;17.40;13.40;;;2.20;30.50;;;;;;5009155;28;20186;-64
2021/01/11 11:51:23;;;;;;;15.20;13.20;;;2.30;29.70;;;;;;5009301;28;20535;-64
2021/01/11 11:53:48;;;;;;;15.40;12.37;;;2.50;29.30;;;;;;5009357;28;20170;-63
2021/01/11 11:56:14;;;;;;;20.97;16.90;;;2.70;28.90;;;;;;5006542;28;20193;-64
2021/01/11 11:58:39;;;;;;;30.10;18.60;;;2.80;28.90;;;;;;5009132;28;20208;-64
2021/01/11 12:01:05;;;;;;;25.67;16.73;;;2.90;28.40;;;;;;5012622;28;20184;-64
2021/01/11 12:03:30;;;;;;;15.63;11.53;;;2.80;28.60;;;;;;5012887;28;20648;-64
2021/01/11 12:05:58;;;;;;;14.10;11.87;;;2.80;28.50;;;;;;5012534;28;20193;-64
2021/01/11 12:08:23;;;;;;;16.10;12.27;;;2.60;28.50;;;;;;5012501;28;20534;-63
2021/01/11 12:10:49;;;;;;;14.80;11.33;;;2.70;29.20;;;;;;5012735;28;20408;-65
2021/01/11 12:13:14;;;;;;;18.27;11.50;;;2.70;28.60;;;;;;5010098;28;20313;-64
2021/01/11 12:15:40;;;;;;;16.90;14.60;;;2.90;29.00;;;;;;5012513;28;20197;-65
2021/01/11 12:18:05;;;;;;;15.50;11.70;;;2.80;28.80;;;;;;5012209;28;20627;-64
2021/01/11 12:20:31;;;;;;;15.00;11.93;;;2.90;28.40;;;;;;5012385;28;20220;-63
2021/01/11 12:22:58;;;;;;;13.57;12.00;;;2.50;28.80;;;;;;5012457;28;20281;-64
2021/01/11 12:25:23;;;;;;;16.53;11.20;;;2.30;29.60;;;;;;5012196;28;20710;-63
2021/01/11 12:27:49;;;;;;;17.70;11.57;;;2.50;29.00;;;;;;5012095;28;20511;-65
2021/01/11 12:30:15;;;;;;;19.90;13.03;;;2.90;28.60;;;;;;5012335;28;20184;-65
2021/01/11 12:32:42;;;;;;;13.30;11.83;;;2.90;29.30;;;;;;5013231;28;20180;-64
2021/01/11 12:35:08;;;;;;;16.13;12.53;;;3.20;28.00;;;;;;5013216;28;21080;-64
2021/01/11 12:37:34;;;;;;;18.37;13.10;;;3.20;28.70;;;;;;5013031;28;20459;-65
2021/01/11 12:39:59;;;;;;;14.20;12.23;;;3.20;28.90;;;;;;5013188;28;20177;-65
2021/01/11 12:42:25;;;;;;;17.23;13.00;;;3.30;28.10;;;;;;5013240;28;20181;-64